Time;durP1;ratioP1;P1;durP2;ratioP2;P2;SDS_P1;SDS_P2;PMS_P1;PMS_P2;Temp;Humidity;BMP_temperature;BMP_pressure;BME280_temperature;BME280_humidity;BME280_pressure;Samples;Min_cycle;Max_cycle;Signal;HPM_P1;HPM_P2
2022/12/05 00:00:29;;;;;;;;;;;2.80;85.00;;;;;;4955662;29;19906;-79
2022/12/05 00:02:55;;;;;;;;;;;2.80;85.20;;;;;;4955579;29;19913;-80
2022/12/05 00:05:20;;;;;;;;;;;2.80;85.20;;;;;;4955514;29;19997;-80
2022/12/05 00:07:46;;;;;;;;;;;2.90;85.40;;;;;;4938220;29;19907;-80
2022/12/05 00:10:12;;;;;;;;;;;2.80;85.60;;;;;;4955414;29;20057;-81
2022/12/05 00:12:37;;;;;;;;;;;2.80;85.60;;;;;;4955280;29;19993;-80
2022/12/05 00:15:03;;;;;;;;;;;2.90;85.70;;;;;;4955262;29;19914;-80
2022/12/05 00:17:30;;;;;;;;;;;2.90;85.60;;;;;;4955161;29;20000;-80
2022/12/05 00:19:55;;;;;;;;;;;2.90;85.50;;;;;;4955343;29;19975;-80
2022/12/05 00:22:21;;;;;;;;;;;2.90;85.50;;;;;;4955142;29;19906;-80
2022/12/05 00:24:46;;;;;;;;;;;2.90;85.40;;;;;;4937941;29;19948;-80
2022/12/05 00:27:11;;;;;;;;;;;2.90;85.30;;;;;;4938152;29;20009;-81
2022/12/05 00:29:37;;;;;;;;;;;2.90;85.30;;;;;;4955023;28;19911;-81
2022/12/05 00:32:02;;;;;;;;;;;2.90;85.40;;;;;;4937711;29;19976;-80
2022/12/05 00:34:28;;;;;;;;;;;2.90;85.30;;;;;;4955435;29;19918;-80
2022/12/05 00:36:53;;;;;;;;;;;2.90;85.20;;;;;;4955535;29;19953;-80
2022/12/05 00:39:19;;;;;;;;;;;3.00;85.20;;;;;;4955209;29;19906;-81
2022/12/05 00:41:44;;;;;;;;;;;3.00;85.00;;;;;;4938008;29;19910;-80
2022/12/05 00:44:11;;;;;;;;;;;3.00;84.90;;;;;;4937857;29;20005;-80
2022/12/05 00:46:36;;;;;;;;;;;3.00;84.90;;;;;;4955483;29;20311;-81
2022/12/05 00:49:03;;;;;;;;;;;3.00;84.90;;;;;;4955119;29;19914;-81
2022/12/05 00:51:30;;;;;;;;;;;3.10;84.80;;;;;;4954817;29;19917;-81
2022/12/05 00:53:59;;;;;;;;;;;3.10;84.70;;;;;;4954769;29;19930;-81
2022/12/05 00:56:25;;;;;;;;;;;3.10;84.70;;;;;;4937762;29;19911;-81
2022/12/05 00:58:52;;;;;;;;;;;3.10;84.80;;;;;;4902402;29;1049895;-80
2022/12/05 01:01:19;;;;;;;;;;;3.20;84.80;;;;;;4957106;29;20269;-81
2022/12/05 01:03:45;;;;;;;;;;;3.10;84.90;;;;;;4957266;29;19910;-81
2022/12/05 01:06:11;;;;;;;;;;;3.10;84.70;;;;;;4940512;29;20421;-81
2022/12/05 01:08:37;;;;;;;;;;;3.10;84.80;;;;;;4947938;29;19906;-80
2022/12/05 01:11:03;;;;;;;;;;;3.10;84.70;;;;;;4956791;29;20282;-81
2022/12/05 01:13:29;;;;;;;;;;;3.10;84.80;;;;;;4939331;29;19914;-81
2022/12/05 01:15:55;;;;;;;;;;;3.20;84.90;;;;;;4955927;29;19921;-81
2022/12/05 01:18:21;;;;;;;;;;;3.20;85.00;;;;;;4938481;29;19907;-82
2022/12/05 01:20:47;;;;;;;;;;;3.10;85.10;;;;;;4955458;29;20004;-82
2022/12/05 01:23:12;;;;;;;;;;;3.10;85.80;;;;;;4955390;29;19910;-82
2022/12/05 01:25:41;;;;;;;;;;;3.20;85.10;;;;;;4955407;29;19910;-81
2022/12/05 01:28:07;;;;;;;;;;;3.20;85.00;;;;;;4938006;29;19906;-81
2022/12/05 01:30:36;;;;;;;;;;;3.20;85.10;;;;;;4955300;29;19906;-81
2022/12/05 01:33:02;;;;;;;;;;;3.20;85.20;;;;;;4955458;29;19907;-81
2022/12/05 01:35:30;;;;;;;;;;;3.20;85.20;;;;;;4955255;29;20319;-81
2022/12/05 01:37:55;;;;;;;;;;;3.20;85.20;;;;;;4955419;29;20336;-82
2022/12/05 01:40:20;;;;;;;;;;;3.20;85.30;;;;;;4955500;29;19957;-81
2022/12/05 01:42:46;;;;;;;;;;;3.30;85.50;;;;;;4939733;29;19907;-81
2022/12/05 01:45:14;;;;;;;;;;;3.20;85.60;;;;;;4958955;29;20360;-81
2022/12/05 01:47:39;;;;;;;;;;;3.20;85.60;;;;;;4958684;29;20443;-81
2022/12/05 01:50:05;;;;;;;;;;;3.10;86.00;;;;;;4959003;29;19953;-81
2022/12/05 01:52:32;;;;;;;;;;;3.10;86.00;;;;;;4958966;29;19906;-81
2022/12/05 01:54:59;;;;;;;;;;;3.10;86.00;;;;;;4958889;29;19915;-81
2022/12/05 01:57:25;;;;;;;;;;;3.20;86.00;;;;;;4958597;29;19915;-81
2022/12/05 01:59:52;;;;;;;;;;;3.10;85.80;;;;;;4941556;29;19992;-81
2022/12/05 02:02:18;;;;;;;;;;;3.10;85.70;;;;;;4941304;29;19906;-81
2022/12/05 02:04:51;;;;;;;;;;;3.10;85.80;;;;;;4958682;29;19913;-81
2022/12/05 02:07:18;;;;;;;;;;;3.10;86.10;;;;;;4958733;29;19906;-81
2022/12/05 02:09:44;;;;;;;;;;;3.00;86.40;;;;;;4941214;29;19957;-81
2022/12/05 02:12:09;;;;;;;;;;;3.00;86.50;;;;;;4958482;29;19914;-81
2022/12/05 02:14:50;;;;;;;;;;;3.00;86.80;;;;;;4958260;29;19910;-81
2022/12/05 02:17:15;;;;;;;;;;;3.00;86.90;;;;;;4958338;29;19910;-81
2022/12/05 02:19:52;;;;;;;;;;;3.00;86.80;;;;;;4941023;29;19907;-81
2022/12/05 02:22:37;;;;;;;;;;;3.10;86.80;;;;;;4941103;29;19913;-81
2022/12/05 02:25:12;;;;;;;;;;;3.00;86.80;;;;;;4941889;29;19913;-81
2022/12/05 02:27:48;;;;;;;;;;;3.10;86.80;;;;;;4942213;29;19906;-81
2022/12/05 02:30:13;;;;;;;;;;;3.10;86.90;;;;;;4958215;29;19977;-81
2022/12/05 02:32:46;;;;;;;;;;;3.20;86.80;;;;;;4958155;29;20390;-82
2022/12/05 02:35:16;;;;;;;;;;;3.20;86.70;;;;;;4959048;29;19915;-81
2022/12/05 02:37:48;;;;;;;;;;;3.20;86.60;;;;;;4940881;29;19960;-81
2022/12/05 02:40:25;;;;;;;;;;;3.20;86.50;;;;;;4940468;29;19906;-82
2022/12/05 02:42:53;;;;;;;;;;;3.20;86.40;;;;;;4958086;29;19965;-81
2022/12/05 02:45:20;;;;;;;;;;;3.20;86.20;;;;;;4957985;29;19910;-82
2022/12/05 02:47:48;;;;;;;;;;;3.20;86.10;;;;;;4957978;29;20387;-81
2022/12/05 02:50:17;;;;;;;;;;;3.30;86.10;;;;;;4940754;29;19929;-81
2022/12/05 02:52:44;;;;;;;;;;;3.30;86.10;;;;;;4940499;28;19961;-82
2022/12/05 02:55:09;;;;;;;;;;;3.20;85.90;;;;;;4957655;29;19922;-81
2022/12/05 02:57:36;;;;;;;;;;;3.30;86.10;;;;;;4957670;29;20025;-81
2022/12/05 03:00:02;;;;;;;;;;;3.20;85.90;;;;;;4957671;29;19930;-82
2022/12/05 03:02:32;;;;;;;;;;;3.20;86.00;;;;;;4940225;29;19907;-82
2022/12/05 03:05:00;;;;;;;;;;;3.20;86.10;;;;;;4957413;29;19913;-81
2022/12/05 03:07:27;;;;;;;;;;;3.20;86.00;;;;;;4957543;29;19906;-82
2022/12/05 03:09:58;;;;;;;;;;;3.20;86.10;;;;;;4957530;29;20016;-82
2022/12/05 03:12:25;;;;;;;;;;;3.20;86.20;;;;;;4957916;29;19973;-82
2022/12/05 03:15:00;;;;;;;;;;;3.20;86.40;;;;;;4940299;29;19918;-82
2022/12/05 03:17:28;;;;;;;;;;;3.20;86.50;;;;;;4957464;29;19910;-82
2022/12/05 03:19:57;;;;;;;;;;;3.20;86.70;;;;;;4957101;29;20355;-83
2022/12/05 03:22:31;;;;;;;;;;;3.20;86.60;;;;;;4939988;29;20004;-82
2022/12/05 03:24:58;;;;;;;;;;;3.20;86.40;;;;;;4940010;29;20327;-83
2022/12/05 03:27:26;;;;;;;;;;;3.20;86.30;;;;;;4957062;29;20339;-82
2022/12/05 03:30:02;;;;;;;;;;;3.10;86.40;;;;;;4957069;29;19906;-83
2022/12/05 03:32:32;;;;;;;;;;;3.20;86.30;;;;;;4956977;29;19910;-82
2022/12/05 03:35:07;;;;;;;;;;;3.20;86.50;;;;;;4956939;29;20369;-83
2022/12/05 03:37:51;;;;;;;;;;;3.20;86.50;;;;;;4939713;29;19907;-83
2022/12/05 03:40:26;;;;;;;;;;;3.20;86.40;;;;;;4939646;29;19911;-82
2022/12/05 03:43:10;;;;;;;;;;;3.20;86.30;;;;;;4956811;29;19906;-82
2022/12/05 03:45:56;;;;;;;;;;;3.20;86.40;;;;;;4956690;29;20359;-82
2022/12/05 03:48:24;;;;;;;;;;;3.20;86.30;;;;;;4908078;29;20356;-82
2022/12/05 03:50:52;;;;;;;;;;;3.10;86.30;;;;;;4956853;29;20090;-82
2022/12/05 03:53:21;;;;;;;;;;;3.10;86.40;;;;;;4956911;29;19938;-83
2022/12/05 03:55:49;;;;;;;;;;;3.20;86.40;;;;;;4956357;29;19915;-82
2022/12/05 03:58:18;;;;;;;;;;;3.20;86.40;;;;;;4956459;29;19919;-82
2022/12/05 04:00:45;;;;;;;;;;;3.20;86.40;;;;;;4956567;29;19961;-83
2022/12/05 04:03:13;;;;;;;;;;;3.10;86.40;;;;;;4956469;29;19906;-83
2022/12/05 04:05:39;;;;;;;;;;;3.10;86.20;;;;;;4956124;28;19914;-82
2022/12/05 04:08:11;;;;;;;;;;;3.10;86.20;;;;;;4939327;29;19906;-82
2022/12/05 04:10:47;;;;;;;;;;;3.10;86.00;;;;;;4956399;29;20286;-83
2022/12/05 04:13:18;;;;;;;;;;;3.00;85.90;;;;;;4939217;29;19906;-83
2022/12/05 04:18:33;;;;;;;;;;;3.10;86.00;;;;;;4956198;29;19996;-81
2022/12/05 04:25:31;;;;;;;;;;;3.10;86.00;;;;;;4956372;29;19953;-81
2022/12/05 04:26:30;;;;;;;;;;;3.10;86.10;;;;;;4955873;29;19962;-80
2022/12/05 04:29:03;;;;;;;;;;;3.10;86.20;;;;;;4955938;29;20030;-80
2022/12/05 04:31:32;;;;;;;;;;;3.10;86.90;;;;;;4955930;29;19907;-80
2022/12/05 04:34:04;;;;;;;;;;;3.10;86.10;;;;;;4956332;29;20005;-81
2022/12/05 04:36:35;;;;;;;;;;;3.20;85.80;;;;;;4955848;29;20002;-80
2022/12/05 04:39:00;;;;;;;;;;;3.20;85.50;;;;;;4955911;29;20366;-81
2022/12/05 04:41:40;;;;;;;;;;;3.10;85.50;;;;;;4955729;29;19959;-81
2022/12/05 04:44:08;;;;;;;;;;;3.10;85.70;;;;;;4955621;29;20266;-81
2022/12/05 04:46:34;;;;;;;;;;;3.10;85.50;;;;;;4955715;29;19907;-81
2022/12/05 04:49:02;;;;;;;;;;;3.10;85.60;;;;;;4955630;29;19906;-80
2022/12/05 04:51:29;;;;;;;;;;;3.20;85.60;;;;;;4955401;29;19914;-82
2022/12/05 04:53:56;;;;;;;;;;;3.20;85.70;;;;;;4938116;29;19932;-81
2022/12/05 04:56:23;;;;;;;;;;;3.30;85.70;;;;;;4938153;29;19965;-80
2022/12/05 04:58:49;;;;;;;;;;;3.20;85.50;;;;;;4955166;29;19977;-81
2022/12/05 05:01:24;;;;;;;;;;;3.20;85.40;;;;;;4938520;29;19906;-82
2022/12/05 05:03:58;;;;;;;;;;;3.20;84.90;;;;;;4938241;29;20336;-81
2022/12/05 05:06:25;;;;;;;;;;;3.20;84.60;;;;;;4938320;29;19950;-83
2022/12/05 05:08:54;;;;;;;;;;;3.30;84.70;;;;;;4938372;29;19907;-82
2022/12/05 05:11:31;;;;;;;;;;;3.20;84.40;;;;;;4955530;29;19906;-84
2022/12/05 05:13:57;;;;;;;;;;;3.20;84.40;;;;;;4955628;29;20343;-83
2022/12/05 05:16:24;;;;;;;;;;;3.30;84.20;;;;;;4955359;28;19956;-83
2022/12/05 05:18:50;;;;;;;;;;;3.30;83.80;;;;;;4959112;29;20389;-84
2022/12/05 05:21:20;;;;;;;;;;;3.40;83.90;;;;;;4959283;29;19934;-81
2022/12/05 05:23:46;;;;;;;;;;;3.30;83.60;;;;;;4959159;29;19906;-82
2022/12/05 05:26:11;;;;;;;;;;;3.30;83.70;;;;;;4941879;29;19906;-82
2022/12/05 05:28:37;;;;;;;;;;;3.30;83.70;;;;;;4942049;29;19906;-82
2022/12/05 05:31:03;;;;;;;;;;;3.40;83.70;;;;;;4959222;29;19907;-81
2022/12/05 05:33:29;;;;;;;;;;;3.40;83.20;;;;;;4958905;29;19910;-82
2022/12/05 05:35:54;;;;;;;;;;;3.40;83.20;;;;;;4958742;29;19921;-83
2022/12/05 05:38:20;;;;;;;;;;;3.40;83.30;;;;;;4941621;29;19953;-81
2022/12/05 05:40:45;;;;;;;;;;;3.40;83.40;;;;;;4958722;29;19906;-81
2022/12/05 05:43:10;;;;;;;;;;;3.40;83.30;;;;;;4941338;29;19906;-82
2022/12/05 05:45:36;;;;;;;;;;;3.40;83.30;;;;;;4958407;29;20442;-82
2022/12/05 05:48:02;;;;;;;;;;;3.40;83.20;;;;;;4958424;29;19932;-81
2022/12/05 05:50:27;;;;;;;;;;;3.50;83.40;;;;;;4958567;29;20355;-81
2022/12/05 05:52:53;;;;;;;;;;;3.50;83.20;;;;;;4958493;29;19989;-81
2022/12/05 05:55:18;;;;;;;;;;;3.40;83.10;;;;;;4941201;29;20267;-81
2022/12/05 05:57:44;;;;;;;;;;;3.40;83.10;;;;;;4958043;29;19925;-80
2022/12/05 06:00:10;;;;;;;;;;;3.40;82.90;;;;;;4958422;29;19906;-81
2022/12/05 06:02:35;;;;;;;;;;;3.40;82.90;;;;;;4958287;29;19907;-81
2022/12/05 06:05:01;;;;;;;;;;;3.40;83.10;;;;;;4958282;29;19936;-80
2022/12/05 06:07:27;;;;;;;;;;;3.50;83.20;;;;;;4958239;29;19914;-80
2022/12/05 06:09:52;;;;;;;;;;;3.40;83.40;;;;;;4940979;29;20274;-80
2022/12/05 06:12:18;;;;;;;;;;;3.40;83.30;;;;;;4958000;29;19906;-80
2022/12/05 06:14:43;;;;;;;;;;;3.40;83.30;;;;;;4957823;29;19921;-80
2022/12/05 06:17:09;;;;;;;;;;;3.40;83.40;;;;;;4958028;29;19954;-81
2022/12/05 06:19:34;;;;;;;;;;;3.40;83.20;;;;;;4957837;29;19954;-80
2022/12/05 06:22:00;;;;;;;;;;;3.50;83.20;;;;;;4959326;29;19913;-81
2022/12/05 06:24:25;;;;;;;;;;;3.40;83.30;;;;;;4963567;29;19922;-80
2022/12/05 06:26:51;;;;;;;;;;;3.40;83.40;;;;;;4962345;29;19962;-82
2022/12/05 06:29:16;;;;;;;;;;;3.40;83.40;;;;;;4949418;29;19952;-81
2022/12/05 06:31:42;;;;;;;;;;;3.50;83.60;;;;;;4960448;29;19907;-81
2022/12/05 06:34:07;;;;;;;;;;;3.50;83.40;;;;;;4958585;29;19957;-80
2022/12/05 06:36:33;;;;;;;;;;;3.50;83.30;;;;;;4958985;29;19911;-80
2022/12/05 06:38:59;;;;;;;;;;;3.50;83.90;;;;;;4959287;29;19906;-80
2022/12/05 06:41:26;;;;;;;;;;;3.50;83.30;;;;;;4958806;29;19917;-80
2022/12/05 06:43:55;;;;;;;;;;;3.50;83.40;;;;;;4940759;29;19924;-80
2022/12/05 06:46:21;;;;;;;;;;;3.50;83.30;;;;;;4942396;29;19911;-81
2022/12/05 06:48:47;;;;;;;;;;;3.50;83.40;;;;;;4941599;29;19913;-79
2022/12/05 06:51:13;;;;;;;;;;;3.50;83.10;;;;;;4958042;29;19944;-79
2022/12/05 06:53:39;;;;;;;;;;;3.60;83.30;;;;;;4957322;29;19910;-79
2022/12/05 06:56:10;;;;;;;;;;;3.60;83.40;;;;;;4940532;29;19969;-79
2022/12/05 06:58:35;;;;;;;;;;;3.60;83.40;;;;;;4955275;28;19958;-80
2022/12/05 07:03:59;;;;;;;;;;;3.70;83.30;;;;;;4944178;28;19906;-80
2022/12/05 07:06:25;;;;;;;;;;;3.70;83.20;;;;;;4960135;28;19906;-81
2022/12/05 07:08:50;;;;;;;;;;;3.70;83.00;;;;;;4945023;28;19918;-81
2022/12/05 07:11:16;;;;;;;;;;;3.80;82.70;;;;;;4960675;28;19906;-81
2022/12/05 07:13:41;;;;;;;;;;;3.80;82.50;;;;;;4977182;28;19961;-79
2022/12/05 07:16:07;;;;;;;;;;;3.80;82.30;;;;;;4959851;28;19929;-79
2022/12/05 07:18:33;;;;;;;;;;;3.90;82.50;;;;;;4977150;28;19910;-80
2022/12/05 07:21:00;;;;;;;;;;;3.90;82.20;;;;;;4977570;28;19906;-80
2022/12/05 07:23:26;;;;;;;;;;;4.00;82.30;;;;;;4959352;28;19997;-79
2022/12/05 07:25:51;;;;;;;;;;;4.00;82.20;;;;;;4958977;28;20039;-80
2022/12/05 07:28:17;;;;;;;;;;;4.10;81.30;;;;;;4958670;28;19906;-80
2022/12/05 07:30:42;;;;;;;;;;;4.20;81.20;;;;;;4958811;28;19906;-80
2022/12/05 07:33:08;;;;;;;;;;;4.10;81.00;;;;;;4976281;28;19910;-80
2022/12/05 07:35:33;;;;;;;;;;;4.20;80.90;;;;;;4975936;28;19921;-80
2022/12/05 07:37:59;;;;;;;;;;;4.20;80.90;;;;;;4958596;28;19910;-81
2022/12/05 07:40:24;;;;;;;;;;;4.20;79.90;;;;;;4975335;28;19906;-82
2022/12/05 07:42:52;;;;;;;;;;;4.20;78.50;;;;;;4975930;28;19941;-80
2022/12/05 07:45:20;;;;;;;;;;;4.30;77.70;;;;;;4975766;28;19906;-79
2022/12/05 07:47:46;;;;;;;;;;;4.30;77.20;;;;;;4976378;28;19910;-81
2022/12/05 07:50:12;;;;;;;;;;;4.30;76.40;;;;;;4976274;28;19906;-80
2022/12/05 07:52:38;;;;;;;;;;;4.40;75.70;;;;;;4975699;28;19906;-79
2022/12/05 07:55:03;;;;;;;;;;;4.40;75.40;;;;;;4958427;28;19917;-80
2022/12/05 07:57:29;;;;;;;;;;;4.50;74.90;;;;;;4975411;28;19938;-81
2022/12/05 07:59:55;;;;;;;;;;;4.50;74.80;;;;;;4976249;28;19906;-83
2022/12/05 08:02:20;;;;;;;;;;;4.60;75.50;;;;;;4975626;28;19909;-80
2022/12/05 08:04:46;;;;;;;;;;;4.60;75.80;;;;;;4957924;28;19906;-80
2022/12/05 08:07:11;;;;;;;;;;;4.60;76.50;;;;;;4976274;28;19906;-79
2022/12/05 08:09:37;;;;;;;;;;;4.50;77.20;;;;;;4976512;28;19945;-80
2022/12/05 08:12:02;;;;;;;;;;;4.50;76.90;;;;;;4975785;28;20334;-80
2022/12/05 08:14:28;;;;;;;;;;;4.50;77.30;;;;;;4958309;28;20362;-83
2022/12/05 08:16:54;;;;;;;;;;;4.50;77.30;;;;;;4976201;28;19906;-83
2022/12/05 08:19:19;;;;;;;;;;;4.60;76.90;;;;;;4976001;28;20016;-80
2022/12/05 08:21:45;;;;;;;;;;;4.60;76.60;;;;;;4958641;28;19906;-82
2022/12/05 08:24:11;;;;;;;;;;;4.70;76.30;;;;;;4976003;28;19992;-83
2022/12/05 08:26:37;;;;;;;;;;;4.70;75.50;;;;;;4958995;28;20008;-83
2022/12/05 08:29:04;;;;;;;;;;;4.70;72.80;;;;;;4976288;28;19953;-82
2022/12/05 08:31:31;;;;;;;;;;;4.90;72.60;;;;;;4976030;28;19909;-83
2022/12/05 08:33:57;;;;;;;;;;;4.90;71.50;;;;;;4975806;28;19957;-83
2022/12/05 08:36:23;;;;;;;;;;;5.00;71.90;;;;;;4975602;28;20405;-83
2022/12/05 08:38:48;;;;;;;;;;;4.90;69.50;;;;;;4958347;28;19914;-83
2022/12/05 08:41:15;;;;;;;;;;;5.00;67.60;;;;;;4976025;28;20014;-83
2022/12/05 08:43:41;;;;;;;;;;;5.10;68.80;;;;;;4975817;28;19910;-82
2022/12/05 08:46:07;;;;;;;;;;;5.10;69.30;;;;;;4976227;28;19952;-80
2022/12/05 08:48:33;;;;;;;;;;;5.10;70.10;;;;;;4958851;28;19906;-83
2022/12/05 08:50:59;;;;;;;;;;;5.10;70.90;;;;;;4958926;28;19910;-80
2022/12/05 08:53:24;;;;;;;;;;;5.10;71.10;;;;;;4976540;28;19915;-82
2022/12/05 08:55:50;;;;;;;;;;;5.10;70.90;;;;;;4958432;28;20013;-83
2022/12/05 08:58:16;;;;;;;;;;;5.10;71.20;;;;;;4975565;28;19925;-83
2022/12/05 09:00:42;;;;;;;;;;;5.10;71.40;;;;;;4975283;28;19907;-81
2022/12/05 09:03:11;;;;;;;;;;;5.10;71.60;;;;;;4958404;28;19906;-81
2022/12/05 09:05:36;;;;;;;;;;;5.10;72.20;;;;;;4958398;28;19906;-80
2022/12/05 09:08:02;;;;;;;;;;;5.10;72.40;;;;;;4959085;28;19906;-81
2022/12/05 09:10:28;;;;;;;;;;;5.20;72.90;;;;;;4958515;28;19912;-80
2022/12/05 09:12:54;;;;;;;;;;;5.20;73.40;;;;;;4975347;28;19906;-80
2022/12/05 09:15:19;;;;;;;;;;;5.20;74.00;;;;;;4975236;28;19965;-82
2022/12/05 09:17:45;;;;;;;;;;;5.20;74.70;;;;;;4958320;28;19914;-80
2022/12/05 09:20:12;;;;;;;;;;;5.20;74.80;;;;;;4959756;28;20256;-80
2022/12/05 09:22:38;;;;;;;;;;;5.30;75.20;;;;;;4959518;28;19906;-81
2022/12/05 09:25:04;;;;;;;;;;;5.40;75.50;;;;;;4975497;28;19941;-80
2022/12/05 09:27:30;;;;;;;;;;;5.40;75.60;;;;;;4958599;28;20385;-81
2022/12/05 09:29:55;;;;;;;;;;;5.40;75.90;;;;;;4975732;28;19906;-82
2022/12/05 09:32:21;;;;;;;;;;;5.50;75.90;;;;;;4957934;28;19912;-82
2022/12/05 09:34:47;;;;;;;;;;;5.50;76.00;;;;;;4975369;28;19910;-84
2022/12/05 09:37:12;;;;;;;;;;;5.40;74.90;;;;;;4958071;28;19906;-83
2022/12/05 09:39:37;;;;;;;;;;;5.40;74.60;;;;;;4975124;28;19913;-83
2022/12/05 09:42:17;;;;;;;;;;;5.30;74.80;;;;;;4958287;28;20363;-83
2022/12/05 09:45:00;;;;;;;;;;;5.20;75.70;;;;;;4958989;28;19992;-81
2022/12/05 09:47:26;;;;;;;;;;;5.20;75.70;;;;;;4959468;28;20001;-83
2022/12/05 09:50:01;;;;;;;;;;;5.30;76.70;;;;;;4959969;28;20322;-81
2022/12/05 09:52:32;;;;;;;;;;;5.20;76.90;;;;;;4961013;28;19912;-81
2022/12/05 09:55:03;;;;;;;;;;;5.20;77.00;;;;;;4978172;28;19910;-81
2022/12/05 09:57:32;;;;;;;;;;;5.30;77.20;;;;;;4980176;28;19929;-81
2022/12/05 09:59:59;;;;;;;;;;;5.30;76.80;;;;;;4976340;28;19914;-80
2022/12/05 10:02:42;;;;;;;;;;;5.30;76.80;;;;;;4976180;28;20105;-80
2022/12/05 10:05:19;;;;;;;;;;;5.40;76.70;;;;;;4963414;28;20003;-80
2022/12/05 10:07:48;;;;;;;;;;;5.40;75.80;;;;;;4963469;28;19906;-81
2022/12/05 10:10:19;;;;;;;;;;;5.40;74.80;;;;;;4977566;28;19906;-80
2022/12/05 10:12:45;;;;;;;;;;;5.40;75.00;;;;;;4977899;28;20001;-80
2022/12/05 10:15:13;;;;;;;;;;;5.50;75.00;;;;;;4977844;28;19997;-81
2022/12/05 10:17:41;;;;;;;;;;;5.50;73.70;;;;;;4977754;28;19906;-82
2022/12/05 10:20:14;;;;;;;;;;;5.40;73.50;;;;;;4977626;28;19960;-80
2022/12/05 10:22:46;;;;;;;;;;;5.30;74.60;;;;;;4977889;28;20338;-79
2022/12/05 10:25:13;;;;;;;;;;;5.20;74.70;;;;;;4977587;28;19906;-80
2022/12/05 10:27:44;;;;;;;;;;;5.20;75.30;;;;;;4980653;28;19913;-82
2022/12/05 10:30:18;;;;;;;;;;;5.00;75.10;;;;;;4982510;28;19917;-83
2022/12/05 10:32:49;;;;;;;;;;;5.10;75.80;;;;;;4963457;28;19906;-80
2022/12/05 10:35:20;;;;;;;;;;;5.10;75.60;;;;;;4976763;28;20347;-80
2022/12/05 10:37:54;;;;;;;;;;;5.10;76.10;;;;;;4977113;28;19906;-79
2022/12/05 10:40:20;;;;;;;;;;;5.00;75.80;;;;;;4977011;28;19917;-79
2022/12/05 10:42:46;;;;;;;;;;;5.10;75.70;;;;;;4976961;28;19906;-79
2022/12/05 10:45:17;;;;;;;;;;;5.10;75.90;;;;;;4959533;28;19917;-79
2022/12/05 10:47:43;;;;;;;;;;;5.10;76.20;;;;;;4977247;28;19906;-79
2022/12/05 10:50:20;;;;;;;;;;;5.10;76.10;;;;;;4959621;28;19921;-82
2022/12/05 10:52:46;;;;;;;;;;;5.20;75.00;;;;;;4977346;28;19932;-81
2022/12/05 10:55:15;;;;;;;;;;;5.20;75.40;;;;;;4976783;28;19914;-83
2022/12/05 10:57:40;;;;;;;;;;;5.20;75.30;;;;;;4976362;28;20413;-79
2022/12/05 11:00:14;;;;;;;;;;;5.30;75.10;;;;;;4976563;28;19906;-81
2022/12/05 11:02:40;;;;;;;;;;;5.30;75.10;;;;;;4959011;28;19910;-81
2022/12/05 11:05:06;;;;;;;;;;;5.30;74.90;;;;;;4976272;28;19906;-83
2022/12/05 11:07:34;;;;;;;;;;;5.20;74.90;;;;;;4976865;28;20300;-80
2022/12/05 11:10:00;;;;;;;;;;;5.30;74.90;;;;;;4976334;28;19910;-80
2022/12/05 11:12:28;;;;;;;;;;;5.50;74.40;;;;;;4958945;28;19906;-80
2022/12/05 11:14:59;;;;;;;;;;;5.80;73.20;;;;;;4976466;28;19914;-83
2022/12/05 11:17:26;;;;;;;;;;;6.10;71.90;;;;;;4976704;28;19906;-82
2022/12/05 11:19:52;;;;;;;;;;;6.90;70.20;;;;;;4976700;28;20346;-80
2022/12/05 11:22:17;;;;;;;;;;;7.40;67.20;;;;;;4959272;28;19930;-80
2022/12/05 11:24:43;;;;;;;;;;;8.00;65.60;;;;;;4959254;28;19906;-80
2022/12/05 11:27:14;;;;;;;;;;;8.90;61.70;;;;;;4976124;28;19906;-80
2022/12/05 11:29:40;;;;;;;;;;;9.70;57.80;;;;;;4959175;28;19932;-80
2022/12/05 11:32:16;;;;;;;;;;;9.80;54.80;;;;;;4976357;28;19906;-80
2022/12/05 11:34:46;;;;;;;;;;;9.60;53.70;;;;;;4977861;28;19918;-79
2022/12/05 11:37:13;;;;;;;;;;;9.00;55.70;;;;;;4978372;28;19914;-80
2022/12/05 11:39:39;;;;;;;;;;;8.40;57.50;;;;;;4960223;28;19912;-80
2022/12/05 11:42:10;;;;;;;;;;;7.90;59.70;;;;;;4985549;28;19906;-78
2022/12/05 11:44:42;;;;;;;;;;;7.70;60.90;;;;;;4965564;28;20395;-83
2022/12/05 11:47:07;;;;;;;;;;;7.40;61.70;;;;;;4959026;28;19910;-81
2022/12/05 11:49:38;;;;;;;;;;;7.00;63.70;;;;;;4976258;28;19906;-83
2022/12/05 11:52:23;;;;;;;;;;;6.70;63.20;;;;;;4959412;28;20001;-82
2022/12/05 11:55:07;;;;;;;;;;;6.50;64.10;;;;;;4976259;28;19925;-83
2022/12/05 11:58:00;;;;;;;;;;;6.30;66.40;;;;;;4979921;28;19918;-80
2022/12/05 12:00:32;;;;;;;;;;;6.10;66.40;;;;;;4958096;28;19961;-81
2022/12/05 12:03:07;;;;;;;;;;;6.10;67.50;;;;;;4957916;28;20414;-80
2022/12/05 12:05:48;;;;;;;;;;;6.20;67.20;;;;;;4975448;28;19906;-81
2022/12/05 12:08:28;;;;;;;;;;;6.30;67.80;;;;;;4975014;28;20355;-80
2022/12/05 12:10:53;;;;;;;;;;;6.40;66.10;;;;;;4957559;28;19906;-80
2022/12/05 12:13:19;;;;;;;;;;;6.40;65.30;;;;;;4957358;28;20418;-80
2022/12/05 12:16:07;;;;;;;;;;;6.30;65.70;;;;;;4974649;28;20304;-79
2022/12/05 12:18:42;;;;;;;;;;;6.30;65.80;;;;;;4974763;28;19906;-81
2022/12/05 12:21:17;;;;;;;;;;;6.20;66.00;;;;;;4974649;28;19928;-79
2022/12/05 12:23:52;;;;;;;;;;;6.30;67.10;;;;;;4957151;28;20001;-80
2022/12/05 12:26:28;;;;;;;;;;;6.40;66.90;;;;;;4974102;28;19969;-80
2022/12/05 12:28:54;;;;;;;;;;;6.40;65.00;;;;;;4957479;28;19906;-82
2022/12/05 12:31:38;;;;;;;;;;;6.40;65.60;;;;;;4975029;28;19917;-84
2022/12/05 12:34:23;;;;;;;;;;;6.30;65.80;;;;;;4957606;28;19913;-83
2022/12/05 12:36:54;;;;;;;;;;;6.30;66.40;;;;;;4940725;28;20262;-81
2022/12/05 12:39:20;;;;;;;;;;;6.20;67.00;;;;;;4974679;28;19910;-82
2022/12/05 12:42:21;;;;;;;;;;;6.30;67.10;;;;;;4974568;28;19929;-82
2022/12/05 12:45:05;;;;;;;;;;;6.40;65.80;;;;;;4877305;29;19908;-81
2022/12/05 12:47:50;;;;;;;;;;;6.70;65.70;;;;;;4966208;28;19906;-81
2022/12/05 12:50:20;;;;;;;;;;;7.10;63.60;;;;;;4974450;28;20263;-84
2022/12/05 12:53:05;;;;;;;;;;;7.00;63.70;;;;;;4974701;28;19912;-80
2022/12/05 12:55:53;;;;;;;;;;;7.00;63.80;;;;;;4957097;28;19918;-81
2022/12/05 12:58:30;;;;;;;;;;;6.80;65.10;;;;;;4974435;28;19933;-80
2022/12/05 13:01:01;;;;;;;;;;;6.70;65.30;;;;;;4974541;28;20252;-80
2022/12/05 13:03:31;;;;;;;;;;;6.60;65.70;;;;;;4957181;28;20351;-80
2022/12/05 13:05:59;;;;;;;;;;;6.50;65.20;;;;;;4974718;28;20017;-80
2022/12/05 13:08:25;;;;;;;;;;;6.40;65.30;;;;;;4974556;28;19906;-81
2022/12/05 13:10:51;;;;;;;;;;;6.30;66.00;;;;;;4974545;28;19906;-81
2022/12/05 13:13:21;;;;;;;;;;;6.30;66.00;;;;;;4957729;28;19957;-81
2022/12/05 13:15:51;;;;;;;;;;;6.20;66.90;;;;;;4974257;28;19914;-81
2022/12/05 13:18:18;;;;;;;;;;;6.10;66.70;;;;;;4974212;28;19934;-80
2022/12/05 13:20:44;;;;;;;;;;;6.20;67.40;;;;;;4974393;28;19913;-80
2022/12/05 13:23:15;;;;;;;;;;;6.20;67.60;;;;;;4974640;28;19917;-82
2022/12/05 13:25:41;;;;;;;;;;;6.10;68.10;;;;;;4958039;28;19914;-82
2022/12/05 13:28:17;;;;;;;;;;;6.10;68.30;;;;;;4974361;28;20371;-81
2022/12/05 13:31:02;;;;;;;;;;;6.10;67.80;;;;;;4974309;28;20420;-81
2022/12/05 13:33:30;;;;;;;;;;;6.00;67.80;;;;;;4974152;28;19929;-80
2022/12/05 13:44:35;;;;;;;;;;;6.00;68.60;;;;;;4978123;28;19912;-82
2022/12/05 13:47:01;;;;;;;;;;;5.90;69.70;;;;;;4960718;28;19912;-81
2022/12/05 13:49:46;;;;;;;;;;;5.80;70.20;;;;;;4960697;28;19906;-81
2022/12/05 13:52:14;;;;;;;;;;;5.80;70.90;;;;;;4960906;28;19913;-82
2022/12/05 13:54:43;;;;;;;;;;;5.60;71.50;;;;;;4960373;28;19910;-82
2022/12/05 13:57:28;;;;;;;;;;;5.50;72.20;;;;;;4977413;28;20294;-83
2022/12/05 14:00:06;;;;;;;;;;;5.50;72.80;;;;;;4977648;28;20009;-81
2022/12/05 14:02:50;;;;;;;;;;;5.50;73.10;;;;;;4978253;28;19909;-81
2022/12/05 14:05:24;;;;;;;;;;;5.50;73.50;;;;;;4960896;28;19906;-81
2022/12/05 14:07:49;;;;;;;;;;;5.50;73.70;;;;;;4961633;28;19917;-81
2022/12/05 14:10:35;;;;;;;;;;;5.50;73.90;;;;;;4960967;28;19906;-80
2022/12/05 14:13:02;;;;;;;;;;;5.50;73.90;;;;;;4930015;28;19906;-82
2022/12/05 14:15:35;;;;;;;;;;;5.50;74.10;;;;;;4977413;28;19921;-81
2022/12/05 14:18:03;;;;;;;;;;;5.50;74.20;;;;;;4977722;28;19941;-77
2022/12/05 14:20:38;;;;;;;;;;;5.50;74.10;;;;;;4978003;28;20001;-79
2022/12/05 14:23:10;;;;;;;;;;;5.50;74.20;;;;;;4977255;28;19941;-79
2022/12/05 14:25:53;;;;;;;;;;;5.60;74.30;;;;;;4959974;28;19910;-78
2022/12/05 14:28:48;;;;;;;;;;;5.60;74.10;;;;;;4977679;28;19906;-80
2022/12/05 14:31:21;;;;;;;;;;;5.60;73.90;;;;;;4940441;28;19906;-78
2022/12/05 14:34:05;;;;;;;;;;;5.60;74.10;;;;;;4978128;28;19949;-79
2022/12/05 14:36:32;;;;;;;;;;;5.70;74.10;;;;;;4977485;28;19957;-79
2022/12/05 14:38:58;;;;;;;;;;;5.70;74.00;;;;;;4976897;28;19949;-78
2022/12/05 14:41:32;;;;;;;;;;;5.70;74.30;;;;;;4977611;28;19906;-78
2022/12/05 14:43:57;;;;;;;;;;;5.70;73.90;;;;;;4959847;28;19957;-78
2022/12/05 14:46:25;;;;;;;;;;;5.70;73.80;;;;;;4977147;28;19906;-78
2022/12/05 14:48:51;;;;;;;;;;;5.70;73.90;;;;;;4959355;28;19906;-78
2022/12/05 14:51:31;;;;;;;;;;;5.70;73.90;;;;;;4977089;28;20048;-77
2022/12/05 14:54:09;;;;;;;;;;;5.80;73.90;;;;;;4976843;28;19906;-77
2022/12/05 14:56:40;;;;;;;;;;;5.80;73.90;;;;;;4977010;28;19914;-77
2022/12/05 14:59:26;;;;;;;;;;;5.80;73.90;;;;;;4976773;28;19918;-79